createdAt,value
2019-06-07T00:01:49.292Z,6.35
2019-06-07T00:04:22.127Z,6.42
2019-06-07T00:06:56.082Z,6.53
2019-06-07T00:09:28.757Z,7.30
2019-06-07T00:12:03.181Z,7.80
2019-06-07T00:14:35.898Z,7.40
2019-06-07T00:17:11.203Z,7.55
2019-06-07T00:19:43.158Z,6.95
2019-06-07T00:22:23.772Z,7.58
2019-06-07T00:24:50.467Z,7.70
2019-06-07T00:27:23.313Z,7.37
2019-06-07T00:29:56.082Z,8.48
2019-06-07T00:32:28.921Z,9.45
2019-06-07T00:35:01.498Z,9.53
2019-06-07T00:37:36.044Z,9.78
2019-06-07T00:40:16.276Z,9.08
2019-06-07T00:42:43.721Z,8.13
2019-06-07T00:45:19.997Z,7.97
2019-06-07T00:47:51.702Z,7.90
2019-06-07T00:50:24.667Z,7.90
2019-06-07T00:55:32.186Z,7.70
2019-06-07T00:58:04.852Z,7.65
2019-06-07T01:00:37.437Z,7.53
2019-06-07T01:03:10.243Z,7.40
2019-06-07T01:05:43.933Z,7.22
2019-06-07T01:08:19.999Z,7.00
2019-06-07T01:10:54.294Z,7.15
2019-06-07T01:13:27.244Z,6.50
2019-06-07T01:15:59.867Z,7.03
2019-06-07T01:18:40.376Z,6.70
2019-06-07T01:21:08.437Z,7.12
2019-06-07T01:24:08.135Z,7.25
2019-06-07T01:26:18.964Z,6.40
2019-06-07T01:28:50.482Z,7.60
2019-06-07T01:31:27.536Z,6.65
2019-06-07T01:33:57.693Z,7.50
2019-06-07T01:36:31.101Z,6.47
2019-06-07T01:39:05.873Z,7.20
2019-06-07T01:41:39.657Z,7.30
2019-06-07T01:44:12.469Z,7.37
2019-06-07T01:46:45.250Z,8.00
2019-06-07T01:49:19.332Z,7.15
2019-06-07T01:51:53.962Z,7.42
2019-06-07T01:54:52.092Z,7.45
2019-06-07T01:57:01.763Z,7.15
2019-06-07T01:59:34.395Z,7.42
2019-06-07T02:02:07.069Z,7.47
2019-06-07T02:04:39.842Z,7.12
2019-06-07T02:07:12.520Z,7.65
2019-06-07T02:09:47.011Z,7.08
2019-06-07T02:12:31.238Z,7.33
2019-06-07T02:14:54.304Z,7.30
2019-06-07T02:17:30.164Z,7.10
2019-06-07T02:20:01.762Z,7.80
2019-06-07T02:22:34.597Z,7.50
2019-06-07T02:27:41.970Z,7.30
2019-06-07T02:32:49.308Z,7.92
2019-06-07T02:35:23.466Z,7.40
2019-06-07T02:37:56.426Z,7.75
2019-06-07T02:40:36.064Z,7.58
2019-06-07T02:43:04.786Z,7.75
2019-06-07T02:45:43.113Z,7.85
2019-06-07T02:48:13.285Z,6.72
2019-06-07T02:50:45.900Z,8.00
2019-06-07T02:53:18.515Z,7.28
2019-06-07T02:56:33.877Z,7.55
2019-06-07T02:58:29.932Z,7.22
2019-06-07T03:01:08.399Z,7.28
2019-06-07T03:03:39.925Z,7.97
2019-06-07T03:06:14.518Z,7.92
2019-06-07T03:08:49.043Z,8.00
2019-06-07T03:11:23.423Z,7.70
2019-06-07T03:13:56.453Z,8.40
2019-06-07T03:16:37.265Z,8.23
2019-06-07T03:19:24.305Z,9.73
2019-06-07T03:21:58.485Z,7.95
2019-06-07T03:24:33.681Z,8.23
2019-06-07T03:29:41.485Z,7.97
2019-06-07T03:32:14.245Z,8.68
2019-06-07T03:34:48.025Z,7.47
2019-06-07T03:37:20.750Z,8.33
2019-06-07T03:39:53.408Z,8.65
2019-06-07T03:42:27.136Z,8.77
2019-06-07T03:44:59.755Z,8.87
2019-06-07T03:47:36.508Z,8.53
2019-06-07T03:50:09.111Z,8.98
2019-06-07T03:52:41.921Z,9.38
2019-06-07T03:55:14.709Z,8.98
2019-06-07T03:58:30.219Z,8.48
2019-06-07T04:00:22.216Z,9.50
2019-06-07T04:02:54.809Z,9.17
2019-06-07T04:05:32.022Z,8.70
2019-06-07T04:08:03.853Z,9.15
2019-06-07T04:10:54.957Z,9.87
2019-06-07T04:13:11.040Z,10.30
2019-06-07T04:15:44.034Z,10.15
2019-06-07T04:18:16.809Z,11.40
2019-06-07T04:20:49.645Z,10.10
2019-06-07T04:23:27.743Z,10.75
2019-06-07T04:25:59.076Z,10.90
2019-06-07T04:29:29.590Z,11.18
2019-06-07T04:31:08.614Z,10.53
2019-06-07T04:33:43.637Z,11.35
2019-06-07T04:36:15.761Z,11.77
2019-06-07T04:38:49.651Z,12.13
2019-06-07T04:41:24.767Z,12.70
2019-06-07T04:44:00.561Z,13.18
2019-06-07T04:46:35.164Z,15.08
2019-06-07T04:49:09.127Z,15.50
2019-06-07T04:51:43.540Z,15.10
2019-06-07T04:54:16.242Z,15.65
2019-06-07T04:56:49.113Z,15.90
2019-06-07T05:00:01.130Z,17.57
2019-06-07T05:01:57.055Z,16.93
2019-06-07T05:04:33.188Z,18.87
2019-06-07T05:07:06.999Z,18.67
2019-06-07T05:09:43.176Z,19.17
2019-06-07T05:12:14.510Z,19.55
2019-06-07T05:14:48.991Z,19.53
2019-06-07T05:17:21.657Z,19.13
2019-06-07T05:19:54.340Z,19.65
2019-06-07T05:22:27.092Z,19.12
2019-06-07T05:24:59.825Z,18.27
2019-06-07T05:27:35.506Z,19.92
2019-06-07T05:30:13.722Z,19.23
2019-06-07T05:32:46.110Z,18.17
2019-06-07T05:35:18.461Z,18.30
2019-06-07T05:37:51.160Z,19.67
2019-06-07T05:40:37.286Z,18.50
2019-06-07T05:43:25.680Z,18.92
2019-06-07T05:45:58.489Z,19.42
2019-06-07T05:48:31.786Z,17.87
2019-06-07T05:51:04.493Z,18.20
2019-06-07T05:53:39.019Z,17.73
2019-06-07T05:56:13.158Z,17.00
2019-06-07T05:58:46.299Z,17.73
2019-06-07T06:01:42.868Z,16.32
2019-06-07T06:03:53.480Z,18.00
2019-06-07T06:06:26.195Z,15.32
2019-06-07T06:09:13.439Z,15.20
2019-06-07T06:11:45.901Z,15.05
2019-06-07T06:14:08.610Z,15.10
2019-06-07T06:16:44.384Z,14.43
2019-06-07T06:19:17.032Z,14.50
2019-06-07T06:21:49.677Z,13.55
2019-06-07T06:24:22.456Z,13.78
2019-06-07T06:27:12.828Z,13.50
2019-06-07T06:29:29.792Z,12.55
2019-06-07T06:32:40.659Z,13.83
2019-06-07T06:34:40.153Z,13.78
2019-06-07T06:37:11.453Z,13.35
2019-06-07T06:39:46.601Z,12.68
2019-06-07T06:42:18.827Z,11.68
2019-06-07T06:44:54.045Z,11.90
2019-06-07T06:47:27.293Z,11.90
2019-06-07T06:50:02.455Z,11.40
2019-06-07T06:52:35.301Z,11.63
2019-06-07T06:55:09.208Z,11.33
2019-06-07T06:57:43.407Z,10.35
2019-06-07T07:00:17.032Z,10.05
2019-06-07T07:03:40.690Z,9.15
2019-06-07T07:05:24.562Z,9.15
2019-06-07T07:07:57.142Z,8.98
2019-06-07T07:10:38.773Z,7.80
2019-06-07T07:13:11.719Z,8.08
2019-06-07T07:15:50.111Z,6.87
2019-06-07T07:18:20.712Z,7.33
2019-06-07T07:20:56.816Z,6.37
2019-06-07T07:23:27.968Z,6.37
2019-06-07T07:26:00.711Z,6.28
2019-06-07T07:28:33.520Z,6.10
2019-06-07T07:31:06.205Z,6.25
2019-06-07T07:36:37.485Z,5.83
2019-06-07T07:38:56.227Z,5.85
2019-06-07T07:41:23.742Z,5.75
2019-06-07T07:44:05.275Z,4.53
2019-06-07T07:46:32.197Z,5.37
2019-06-07T07:49:06.607Z,5.58
2019-06-07T07:51:39.483Z,5.17
2019-06-07T07:54:12.069Z,4.92
2019-06-07T07:56:45.730Z,5.72
2019-06-07T07:59:19.403Z,4.90
2019-06-07T08:01:55.547Z,4.75
2019-06-07T08:05:12.388Z,4.83
2019-06-07T08:07:01.156Z,5.35
2019-06-07T08:09:33.888Z,5.60
2019-06-07T08:12:06.724Z,4.67
2019-06-07T08:14:39.581Z,5.28
2019-06-07T08:17:12.357Z,4.62
2019-06-07T08:19:47.641Z,5.20
2019-06-07T08:22:19.785Z,5.75
2019-06-07T08:24:53.727Z,5.65
2019-06-07T08:27:27.259Z,5.50
2019-06-07T08:30:25.945Z,5.40
2019-06-07T08:32:35.491Z,4.65
2019-06-07T08:35:08.632Z,4.30
2019-06-07T08:38:15.201Z,3.98
2019-06-07T08:40:16.102Z,3.67
2019-06-07T08:43:10.855Z,3.83
2019-06-07T08:45:24.098Z,3.50
2019-06-07T08:48:01.640Z,2.80
2019-06-07T08:50:33.068Z,2.95
2019-06-07T08:53:12.326Z,3.27
2019-06-07T08:55:40.487Z,3.85
2019-06-07T08:58:13.389Z,3.25
2019-06-07T09:00:47.430Z,3.27
2019-06-07T09:03:20.644Z,2.98
2019-06-07T09:05:54.187Z,2.80
2019-06-07T09:08:30.843Z,2.67
2019-06-07T09:11:10.462Z,2.67
2019-06-07T09:13:37.074Z,3.20
2019-06-07T09:16:09.769Z,2.95
2019-06-07T09:18:44.795Z,2.98
2019-06-07T09:21:17.215Z,2.70
2019-06-07T09:23:51.260Z,2.75
2019-06-07T09:26:24.047Z,2.70
2019-06-07T09:28:58.529Z,3.10
2019-06-07T09:31:51.215Z,2.80
2019-06-07T09:34:11.789Z,2.47
2019-06-07T09:36:42.182Z,3.00
2019-06-07T09:39:14.813Z,2.87
2019-06-07T09:41:50.360Z,2.75
2019-06-07T09:44:26.035Z,2.47
2019-06-07T09:47:20.130Z,2.67
2019-06-07T09:49:33.193Z,2.40
2019-06-07T09:52:10.430Z,2.72
2019-06-07T09:55:06.290Z,2.52
2019-06-07T09:57:17.456Z,2.58
2019-06-07T09:59:49.618Z,2.75
2019-06-07T10:02:22.451Z,2.72
2019-06-07T10:04:55.125Z,2.60
2019-06-07T10:07:31.818Z,2.95
2019-06-07T10:12:37.197Z,2.42
2019-06-07T10:15:09.983Z,2.70
2019-06-07T10:17:42.604Z,2.58
2019-06-07T10:20:15.713Z,2.30
2019-06-07T10:22:48.531Z,2.75
2019-06-07T10:25:21.406Z,2.45
2019-06-07T10:27:54.164Z,2.65
2019-06-07T10:30:26.803Z,3.37
2019-06-07T10:32:59.996Z,3.45
2019-06-07T10:35:34.023Z,2.95
2019-06-07T10:38:06.707Z,2.67
2019-06-07T10:40:39.421Z,2.40
2019-06-07T10:43:14.470Z,3.27
2019-06-07T10:45:47.012Z,3.00
2019-06-07T10:48:19.694Z,5.45
2019-06-07T10:50:52.453Z,5.12
2019-06-07T10:53:25.371Z,2.58
2019-06-07T10:55:57.995Z,2.60
2019-06-07T10:58:30.735Z,2.50
2019-06-07T11:01:03.494Z,2.30
2019-06-07T11:03:36.281Z,2.50
2019-06-07T11:06:10.096Z,2.60
2019-06-07T11:08:43.046Z,2.80
2019-06-07T11:11:15.766Z,2.17
2019-06-07T11:13:48.400Z,2.33
2019-06-07T11:16:21.070Z,1.65
2019-06-07T11:18:53.987Z,1.90
2019-06-07T11:21:27.781Z,23.87
2019-06-07T11:24:01.806Z,2.60
2019-06-07T11:26:34.524Z,1.90
2019-06-07T11:29:10.932Z,1.80
2019-06-07T11:31:47.187Z,2.02
2019-06-07T11:34:18.880Z,2.37
2019-06-07T11:36:51.891Z,2.45
2019-06-07T11:39:26.631Z,7.80
2019-06-07T11:41:59.475Z,1.70
2019-06-07T11:44:32.312Z,1.70
2019-06-07T11:47:06.378Z,1.80
2019-06-07T11:49:40.625Z,1.70
2019-06-07T11:52:13.933Z,1.82
2019-06-07T11:54:48.172Z,1.70
2019-06-07T11:57:22.361Z,1.47
2019-06-07T11:59:56.151Z,1.50
2019-06-07T12:02:28.837Z,1.50
2019-06-07T12:05:01.732Z,1.52
2019-06-07T12:07:34.422Z,1.60
2019-06-07T12:10:08.546Z,1.70
2019-06-07T12:12:41.354Z,2.08
2019-06-07T12:15:16.964Z,1.47
2019-06-07T12:17:51.430Z,1.77
2019-06-07T12:20:24.081Z,1.50
2019-06-07T12:22:58.728Z,1.55
2019-06-07T12:25:31.472Z,1.65
2019-06-07T12:28:04.171Z,1.67
2019-06-07T12:30:36.947Z,1.47
2019-06-07T12:33:09.607Z,1.90
2019-06-07T12:35:42.522Z,1.60
2019-06-07T12:38:17.378Z,1.87
2019-06-07T12:40:57.601Z,1.67
2019-06-07T12:43:24.579Z,1.70
2019-06-07T12:45:58.426Z,1.60
2019-06-07T12:48:31.121Z,1.75
2019-06-07T12:51:03.928Z,1.80
2019-06-07T12:53:36.641Z,1.55
2019-06-07T12:56:13.499Z,1.87
2019-06-07T12:58:46.443Z,1.90
2019-06-07T13:01:20.848Z,1.82
2019-06-07T13:03:55.321Z,1.82
2019-06-07T13:06:28.121Z,1.67
2019-06-07T13:09:02.356Z,1.70
2019-06-07T13:11:36.884Z,1.90
2019-06-07T13:14:09.624Z,1.70
2019-06-07T13:16:42.269Z,1.90
2019-06-07T13:19:16.205Z,1.75
2019-06-07T13:21:48.982Z,1.85
2019-06-07T13:24:22.832Z,1.87
2019-06-07T13:26:55.633Z,1.70
2019-06-07T13:29:31.640Z,1.90
2019-06-07T13:32:03.069Z,2.00
2019-06-07T13:34:35.708Z,1.75
2019-06-07T13:37:08.376Z,1.55
2019-06-07T13:39:41.033Z,1.70
2019-06-07T13:42:13.873Z,2.12
2019-06-07T13:44:48.284Z,1.70
2019-06-07T13:47:21.270Z,1.70
2019-06-07T13:49:55.484Z,2.00
2019-06-07T13:52:28.575Z,1.40
2019-06-07T13:55:03.470Z,1.70
2019-06-07T13:57:38.013Z,1.80
2019-06-07T14:00:12.384Z,1.77
2019-06-07T14:02:47.106Z,1.65
2019-06-07T14:05:20.971Z,1.60
2019-06-07T14:07:53.902Z,1.85
2019-06-07T14:10:29.558Z,1.80
2019-06-07T14:13:02.573Z,1.75
2019-06-07T14:15:36.981Z,1.60
2019-06-07T14:18:09.904Z,1.70
2019-06-07T14:20:42.671Z,1.55
2019-06-07T14:23:15.460Z,1.50
2019-06-07T14:25:51.670Z,1.40
2019-06-07T14:28:27.121Z,1.60
2019-06-07T14:31:00.923Z,1.65
2019-06-07T14:33:35.043Z,1.60
2019-06-07T14:36:09.220Z,1.60
2019-06-07T14:38:42.088Z,2.22
2019-06-07T14:41:14.832Z,1.45
2019-06-07T14:43:47.640Z,2.00
2019-06-07T14:46:23.481Z,1.82
2019-06-07T14:48:56.377Z,1.95
2019-06-07T14:51:31.329Z,1.90
2019-06-07T14:54:03.914Z,2.52
2019-06-07T14:56:36.833Z,2.33
2019-06-07T14:59:09.594Z,2.10
2019-06-07T15:01:44.240Z,2.42
2019-06-07T15:04:18.774Z,1.95
2019-06-07T15:06:52.564Z,2.12
2019-06-07T15:09:26.721Z,2.85
2019-06-07T15:11:59.800Z,2.60
2019-06-07T15:14:33.797Z,2.50
2019-06-07T15:17:06.453Z,2.42
2019-06-07T15:19:39.149Z,2.42
2019-06-07T15:22:11.932Z,2.47
2019-06-07T15:24:44.549Z,2.37
2019-06-07T15:27:18.501Z,2.70
2019-06-07T15:29:51.269Z,2.77
2019-06-07T15:32:24.009Z,2.60
2019-06-07T15:34:56.848Z,2.60
2019-06-07T15:37:30.497Z,2.80
2019-06-07T15:40:04.047Z,2.92
2019-06-07T15:42:49.085Z,2.95
2019-06-07T15:45:12.550Z,2.83
2019-06-07T15:47:45.328Z,3.98
2019-06-07T15:50:18.252Z,3.52
2019-06-07T15:52:51.094Z,4.40
2019-06-07T15:55:23.881Z,5.08
2019-06-07T15:57:56.664Z,6.80
2019-06-07T16:00:29.382Z,4.25
2019-06-07T16:03:02.234Z,4.90
2019-06-07T16:05:36.301Z,5.47
2019-06-07T16:08:11.098Z,4.95
2019-06-07T16:10:43.933Z,5.35
2019-06-07T16:13:16.699Z,4.92
2019-06-07T16:15:50.544Z,5.70
2019-06-07T16:18:23.231Z,5.42
2019-06-07T16:20:55.979Z,4.72
2019-06-07T16:23:28.744Z,6.00
2019-06-07T16:26:01.399Z,5.53
2019-06-07T16:28:34.313Z,3.52
2019-06-07T16:31:06.985Z,2.65
2019-06-07T16:33:41.475Z,2.20
2019-06-07T16:36:14.359Z,2.20
2019-06-07T16:38:47.036Z,2.52
2019-06-07T16:41:19.776Z,2.02
2019-06-07T16:43:52.673Z,1.80
2019-06-07T16:46:26.495Z,7.00
2019-06-07T16:48:59.219Z,1.70
2019-06-07T16:51:31.979Z,1.60
2019-06-07T16:54:04.768Z,1.10
2019-06-07T16:56:37.548Z,0.90
2019-06-07T16:59:10.298Z,1.10
2019-06-07T17:01:43.187Z,1.10
2019-06-07T17:04:16.140Z,0.90
2019-06-07T17:06:49.010Z,0.80
2019-06-07T17:09:21.763Z,0.80
2019-06-07T17:11:54.500Z,0.62
2019-06-07T17:14:27.240Z,0.95
2019-06-07T17:17:01.082Z,0.70
2019-06-07T17:19:33.931Z,1.47
2019-06-07T17:22:06.721Z,0.60
2019-06-07T17:24:39.416Z,0.80
2019-06-07T17:27:13.899Z,0.90
2019-06-07T17:29:49.966Z,0.60
2019-06-07T17:32:22.815Z,0.75
2019-06-07T17:34:55.801Z,0.50
2019-06-07T17:37:28.579Z,0.60
2019-06-07T17:40:03.604Z,0.75
2019-06-07T17:42:38.238Z,0.60
2019-06-07T17:45:11.707Z,0.60
2019-06-07T17:47:45.851Z,0.60
2019-06-07T17:50:20.687Z,0.50
2019-06-07T17:52:53.651Z,1.00
2019-06-07T17:55:26.447Z,0.57
2019-06-07T17:58:00.267Z,0.50
2019-06-07T18:00:53.101Z,0.80
2019-06-07T18:03:25.962Z,0.50
2019-06-07T18:05:59.977Z,0.60
2019-06-07T18:08:32.951Z,0.53
2019-06-07T18:11:05.624Z,0.70
2019-06-07T18:13:38.252Z,0.60
2019-06-07T18:16:12.160Z,0.42
2019-06-07T18:18:44.882Z,3.40
2019-06-07T18:21:17.630Z,0.53
2019-06-07T18:23:52.865Z,0.53
2019-06-07T18:26:25.149Z,0.50
2019-06-07T18:28:59.323Z,0.50
2019-06-07T18:31:33.628Z,0.50
2019-06-07T18:34:06.442Z,0.60
2019-06-07T18:36:39.245Z,0.60
2019-06-07T18:39:11.976Z,0.53
2019-06-07T18:41:44.652Z,0.60
2019-06-07T18:44:21.522Z,0.53
2019-06-07T18:46:52.269Z,0.50
2019-06-07T18:49:25.135Z,0.70
2019-06-07T18:52:18.157Z,0.72
2019-06-07T18:54:51.019Z,0.60
2019-06-07T18:57:26.631Z,1.80
2019-06-07T18:59:59.523Z,0.93
2019-06-07T19:02:33.956Z,0.72
2019-06-07T19:05:07.781Z,0.60
2019-06-07T19:07:40.651Z,0.50
2019-06-07T19:10:14.261Z,0.70
2019-06-07T19:12:47.151Z,0.65
2019-06-07T19:15:20.955Z,0.78
2019-06-07T19:17:54.009Z,0.47
2019-06-07T19:20:28.906Z,0.50
2019-06-07T19:23:01.877Z,0.60
2019-06-07T19:25:35.718Z,0.90
2019-06-07T19:28:08.470Z,0.50
2019-06-07T19:30:41.230Z,0.40
2019-06-07T19:33:13.996Z,0.62
2019-06-07T19:35:46.847Z,0.62
2019-06-07T19:38:21.456Z,0.70
2019-06-07T19:40:54.151Z,0.93
2019-06-07T19:43:26.797Z,0.65
2019-06-07T19:46:00.372Z,0.70
2019-06-07T19:48:33.183Z,0.80
2019-06-07T19:51:05.797Z,0.57
2019-06-07T19:53:38.658Z,0.45
2019-06-07T19:56:12.553Z,0.70
2019-06-07T19:58:45.285Z,0.50
2019-06-07T20:01:18.184Z,0.50
2019-06-07T20:03:50.917Z,0.70
2019-06-07T20:06:23.691Z,0.55
2019-06-07T20:08:56.627Z,0.50
2019-06-07T20:11:29.557Z,0.53
2019-06-07T20:14:03.038Z,0.70
2019-06-07T20:16:35.949Z,0.70
2019-06-07T20:19:09.106Z,0.70
2019-06-07T20:21:41.922Z,0.80
2019-06-07T20:24:27.648Z,0.90
2019-06-07T20:27:00.516Z,1.10
2019-06-07T20:29:33.237Z,0.90
2019-06-07T20:32:06.044Z,0.47
2019-06-07T20:34:38.787Z,0.60
2019-06-07T20:37:13.741Z,0.88
2019-06-07T20:39:46.557Z,0.70
2019-06-07T20:42:19.266Z,1.07
2019-06-07T20:44:53.817Z,0.88
2019-06-07T20:47:26.579Z,0.93
2019-06-07T20:50:00.518Z,0.82
2019-06-07T20:52:34.635Z,0.53
2019-06-07T20:55:09.442Z,0.70
2019-06-07T20:57:42.515Z,0.80
2019-06-07T21:00:21.713Z,1.10
2019-06-07T21:02:52.762Z,0.85
2019-06-07T21:05:26.650Z,0.95
2019-06-07T21:07:59.429Z,0.98
2019-06-07T21:10:32.268Z,0.82
2019-06-07T21:13:05.930Z,0.70
2019-06-07T21:15:48.313Z,0.82
2019-06-07T21:18:19.513Z,0.85
2019-06-07T21:20:48.004Z,0.70
2019-06-07T21:23:20.942Z,0.70
2019-06-07T21:25:53.720Z,0.70
2019-06-07T21:28:26.425Z,0.80
2019-06-07T21:30:59.029Z,0.62
2019-06-07T21:33:31.849Z,0.72
2019-06-07T21:36:06.002Z,0.80
2019-06-07T21:38:38.913Z,0.90
2019-06-07T21:41:12.636Z,0.68
2019-06-07T21:43:45.599Z,0.78
2019-06-07T21:46:20.418Z,1.00
2019-06-07T21:48:52.958Z,0.75
2019-06-07T21:51:25.833Z,0.70
2019-06-07T21:53:59.645Z,0.98
2019-06-07T21:56:32.528Z,1.00
2019-06-07T21:59:05.154Z,1.07
2019-06-07T22:01:38.041Z,0.90
2019-06-07T22:04:11.732Z,1.10
2019-06-07T22:06:45.534Z,0.80
2019-06-07T22:09:18.275Z,0.80
2019-06-07T22:11:50.953Z,0.60
2019-06-07T22:14:23.602Z,1.20
2019-06-07T22:16:56.202Z,1.00
2019-06-07T22:19:29.998Z,1.42
2019-06-07T22:22:05.232Z,0.78
2019-06-07T22:24:38.455Z,0.93
2019-06-07T22:27:11.354Z,0.80
2019-06-07T22:29:46.069Z,1.00
2019-06-07T22:32:19.178Z,1.27
2019-06-07T22:34:52.089Z,1.20
2019-06-07T22:37:24.734Z,0.80
2019-06-07T22:39:57.391Z,0.95
2019-06-07T22:42:30.240Z,0.68
2019-06-07T22:45:03.593Z,0.85
2019-06-07T22:47:36.719Z,0.78
2019-06-07T22:50:10.902Z,0.70
2019-06-07T22:52:44.054Z,0.80
2019-06-07T22:55:16.738Z,0.90
2019-06-07T22:57:56.528Z,0.88
2019-06-07T23:00:30.784Z,0.78
2019-06-07T23:03:03.795Z,0.40
2019-06-07T23:05:36.545Z,0.90
2019-06-07T23:08:09.357Z,1.05
2019-06-07T23:10:43.918Z,0.90
2019-06-07T23:13:17.820Z,0.65
2019-06-07T23:15:51.017Z,0.70
2019-06-07T23:18:23.667Z,0.80
2019-06-07T23:20:56.400Z,0.80
2019-06-07T23:23:30.159Z,1.50
2019-06-07T23:26:02.965Z,0.80
2019-06-07T23:28:35.767Z,0.82
2019-06-07T23:31:08.597Z,0.68
2019-06-07T23:33:41.275Z,0.95
2019-06-07T23:36:15.069Z,1.10
2019-06-07T23:38:47.939Z,0.60
2019-06-07T23:41:22.181Z,0.70
2019-06-07T23:43:57.716Z,0.90
2019-06-07T23:46:30.379Z,0.90
2019-06-07T23:49:04.145Z,0.78
2019-06-07T23:51:38.587Z,1.07
2019-06-07T23:54:11.522Z,0.95
2019-06-07T23:56:44.330Z,0.93
2019-06-07T23:59:18.132Z,1.02
